createdAt,value
2022-10-04T07:29:01.406Z,10.80
2022-10-04T07:34:32.850Z,11.00
2022-10-04T07:49:17.743Z,11.40
2022-10-04T07:54:58.875Z,11.50
2022-10-04T08:00:28.854Z,11.60
2022-10-04T08:05:42.860Z,11.70
2022-10-04T08:11:19.826Z,11.80
2022-10-04T08:16:54.632Z,12.00
2022-10-04T08:22:18.411Z,12.10
2022-10-04T08:27:24.132Z,12.20
2022-10-04T08:33:02.172Z,12.30
2022-10-04T08:38:23.298Z,12.30
2022-10-04T08:44:06.883Z,12.40
2022-10-04T08:49:52.420Z,12.50
2022-10-04T08:55:21.045Z,12.60
2022-10-04T09:00:46.992Z,12.70
2022-10-04T09:05:53.598Z,12.90
2022-10-04T09:11:14.911Z,12.90
2022-10-04T09:16:45.462Z,13.00
2022-10-04T09:21:57.205Z,13.20
2022-10-04T09:27:54.161Z,13.30
2022-10-04T09:33:09.659Z,13.40
2022-10-04T09:38:36.039Z,13.50
2022-10-04T09:43:57.461Z,13.60
2022-10-04T09:49:22.381Z,13.70
2022-10-04T09:54:56.954Z,13.70
2022-10-04T10:00:25.186Z,13.70
2022-10-04T10:05:49.631Z,13.80
2022-10-04T10:11:19.484Z,13.70
2022-10-04T10:16:31.210Z,13.80
2022-10-04T10:21:58.275Z,13.90
2022-10-04T10:27:31.434Z,14.10
2022-10-04T10:32:40.230Z,14.20
2022-10-04T10:38:10.548Z,14.40
2022-10-04T10:43:37.681Z,14.40
2022-10-04T10:48:58.989Z,14.40
2022-10-04T10:54:13.761Z,14.60
2022-10-04T10:59:38.031Z,14.70
2022-10-04T11:05:11.664Z,15.00
2022-10-04T11:10:21.090Z,15.30
2022-10-04T11:15:52.160Z,15.60
2022-10-04T11:21:09.771Z,15.60
2022-10-04T11:26:15.735Z,15.90
2022-10-04T11:31:18.620Z,16.00
2022-10-04T11:36:30.033Z,16.20
2022-10-04T11:42:04.498Z,16.50
2022-10-04T11:47:21.781Z,16.90
2022-10-04T11:53:03.483Z,17.10
2022-10-04T11:58:35.515Z,17.20
2022-10-04T12:03:50.459Z,17.50
2022-10-04T12:09:13.533Z,17.60
2022-10-04T12:14:38.950Z,17.70
2022-10-04T12:20:19.177Z,17.80
2022-10-04T12:25:59.490Z,17.80
2022-10-04T12:31:31.724Z,17.90
2022-10-04T12:37:10.728Z,18.20
2022-10-04T12:42:44.428Z,18.30
2022-10-04T12:47:55.809Z,18.30
2022-10-04T12:53:18.468Z,18.20
2022-10-04T12:58:39.977Z,18.30
2022-10-04T13:03:42.664Z,18.30
2022-10-04T13:09:20.248Z,18.40
2022-10-04T13:14:47.402Z,18.20
2022-10-04T13:20:13.352Z,18.30
2022-10-04T13:25:22.143Z,18.50
2022-10-04T13:30:29.371Z,18.40
2022-10-04T13:35:37.766Z,18.40
2022-10-04T13:41:11.541Z,18.50
2022-10-04T13:46:37.691Z,18.40
2022-10-04T13:52:18.828Z,18.50
2022-10-04T13:57:49.977Z,18.50
2022-10-04T14:03:04.887Z,18.70
2022-10-04T14:08:49.540Z,18.30
2022-10-04T14:14:33.368Z,18.40
2022-10-04T14:20:02.288Z,18.20
2022-10-04T14:25:35.884Z,18.30
2022-10-04T14:31:10.920Z,18.50
2022-10-04T14:36:28.711Z,18.40
2022-10-04T14:41:53.068Z,18.60
2022-10-04T14:47:34.696Z,18.50
2022-10-04T14:53:45.844Z,18.50
2022-10-04T14:58:54.689Z,18.50
2022-10-04T15:04:14.142Z,18.80
2022-10-04T15:09:32.073Z,18.90
2022-10-04T15:15:12.305Z,19.00
2022-10-04T15:20:22.489Z,19.10
2022-10-04T15:25:53.585Z,18.90
2022-10-04T15:31:20.924Z,18.90
2022-10-04T15:36:45.710Z,18.80
2022-10-04T15:42:15.043Z,18.70
2022-10-04T15:47:54.924Z,18.60
2022-10-04T15:53:24.304Z,18.30
2022-10-04T15:58:53.255Z,18.00
2022-10-04T16:04:20.012Z,17.50
2022-10-04T16:09:50.115Z,17.30
2022-10-04T16:14:59.034Z,16.90
2022-10-04T16:20:28.202Z,16.50
2022-10-04T16:25:39.033Z,16.20
2022-10-04T16:30:49.655Z,15.90
2022-10-04T16:36:17.265Z,15.60
2022-10-04T16:41:56.696Z,15.30
2022-10-04T16:47:11.162Z,15.00
2022-10-04T16:52:38.649Z,14.70
2022-10-04T16:57:43.510Z,14.30
2022-10-04T17:02:49.421Z,14.10
2022-10-04T17:08:04.942Z,13.80
2022-10-04T17:13:21.168Z,13.50
2022-10-04T17:19:16.159Z,13.30
2022-10-04T17:24:44.713Z,13.00
2022-10-04T17:29:48.371Z,12.80
2022-10-04T17:35:13.522Z,12.60
2022-10-04T17:40:38.641Z,12.40
2022-10-04T17:45:44.388Z,12.20
2022-10-04T17:51:30.627Z,12.00
2022-10-04T17:56:45.741Z,11.80
2022-10-04T18:02:09.748Z,11.60
2022-10-04T18:07:24.503Z,11.40
2022-10-04T18:12:46.638Z,11.30
2022-10-04T18:17:50.733Z,11.10
2022-10-04T18:23:01.515Z,11.00
2022-10-04T18:28:10.377Z,10.90
2022-10-04T18:33:18.900Z,10.70
2022-10-04T18:38:28.560Z,10.60
2022-10-04T18:43:52.201Z,10.60
2022-10-04T18:49:08.878Z,10.50
2022-10-04T18:54:46.521Z,10.40
2022-10-04T19:00:30.960Z,10.20
2022-10-04T19:05:51.600Z,10.10
2022-10-04T19:11:19.437Z,10.00
2022-10-04T19:16:45.508Z,9.90
2022-10-04T19:21:55.070Z,9.70
2022-10-04T19:27:09.481Z,9.60
2022-10-04T19:32:23.026Z,9.50
2022-10-04T19:37:27.884Z,9.50
2022-10-04T19:42:52.312Z,9.40
2022-10-04T19:47:58.334Z,9.30
2022-10-04T19:53:07.482Z,9.20
2022-10-04T19:58:30.759Z,9.10
2022-10-04T20:03:34.032Z,9.00
2022-10-04T20:09:17.686Z,8.80
2022-10-04T20:14:23.478Z,8.70
2022-10-04T20:19:29.061Z,8.70
2022-10-04T20:24:37.724Z,8.60
2022-10-04T20:29:57.626Z,8.50
2022-10-04T20:35:01.975Z,8.40
2022-10-04T20:40:06.242Z,8.30
2022-10-04T20:45:12.111Z,8.20
2022-10-04T20:50:38.991Z,8.20
2022-10-04T20:55:44.318Z,8.10
2022-10-04T21:00:57.896Z,8.10
2022-10-04T21:06:04.948Z,8.00
2022-10-04T21:11:18.506Z,7.90
2022-10-04T21:16:35.381Z,7.80
2022-10-04T21:21:51.306Z,7.80
2022-10-04T21:26:57.728Z,7.70
2022-10-04T21:32:01.330Z,7.60
2022-10-04T21:37:04.070Z,7.60
2022-10-04T21:42:06.861Z,7.50
2022-10-04T21:47:10.294Z,7.60
2022-10-04T21:52:13.073Z,7.60
2022-10-04T21:57:15.936Z,7.80
2022-10-04T22:02:18.695Z,7.80
2022-10-04T22:07:21.728Z,7.90
2022-10-04T22:12:24.451Z,7.90
2022-10-04T22:17:27.169Z,7.90
2022-10-04T22:22:32.677Z,7.90
2022-10-04T22:27:37.071Z,7.90
2022-10-04T22:32:39.841Z,7.90
2022-10-04T22:37:43.588Z,8.00
2022-10-04T22:42:50.518Z,8.10
2022-10-04T22:47:54.997Z,8.20
2022-10-04T22:52:58.851Z,8.30
2022-10-04T22:58:02.928Z,8.30
2022-10-04T23:03:25.373Z,8.30
2022-10-04T23:08:29.400Z,8.40
2022-10-04T23:13:32.143Z,8.40
2022-10-04T23:18:34.918Z,8.40
2022-10-04T23:23:37.705Z,8.40
2022-10-04T23:28:40.519Z,8.40
2022-10-04T23:33:43.314Z,8.40
2022-10-04T23:38:51.111Z,8.40
2022-10-04T23:43:54.254Z,8.30
2022-10-04T23:48:56.940Z,8.40
2022-10-04T23:53:59.708Z,8.40
2022-10-04T23:59:02.530Z,8.30
